createdAt,value
2022-10-09T00:01:19.568Z,77.90
2022-10-09T00:03:51.418Z,77.90
2022-10-09T00:06:21.643Z,77.90
2022-10-09T00:08:49.919Z,77.90
2022-10-09T00:11:19.879Z,77.90
2022-10-09T00:13:48.444Z,77.90
2022-10-09T00:16:18.142Z,77.80
2022-10-09T00:18:48.215Z,77.90
2022-10-09T00:21:20.691Z,77.90
2022-10-09T00:23:49.484Z,77.90
2022-10-09T00:26:17.988Z,77.90
2022-10-09T00:28:47.232Z,77.90
2022-10-09T00:31:16.511Z,77.90
2022-10-09T00:33:44.790Z,77.90
2022-10-09T00:36:16.066Z,77.90
2022-10-09T00:38:44.364Z,77.90
2022-10-09T00:41:16.111Z,78.00
2022-10-09T00:43:47.111Z,77.90
2022-10-09T00:46:28.725Z,78.10
2022-10-09T00:49:15.676Z,78.30
2022-10-09T00:51:47.258Z,78.20
2022-10-09T00:54:19.207Z,78.10
2022-10-09T00:56:47.791Z,78.20
2022-10-09T00:59:16.617Z,78.10
2022-10-09T01:01:45.164Z,78.20
2022-10-09T01:04:13.576Z,78.20
2022-10-09T01:06:57.161Z,78.20
2022-10-09T01:09:30.417Z,78.20
2022-10-09T01:12:03.969Z,78.20
2022-10-09T01:14:37.661Z,78.10
2022-10-09T01:17:10.228Z,78.30
2022-10-09T01:19:57.831Z,78.20
2022-10-09T01:22:43.184Z,78.30
2022-10-09T01:25:20.746Z,78.30
2022-10-09T01:27:50.688Z,78.30
2022-10-09T01:30:19.521Z,78.40
2022-10-09T01:32:52.022Z,78.40
2022-10-09T01:35:21.746Z,78.40
2022-10-09T01:37:52.531Z,78.60
2022-10-09T01:40:22.403Z,78.60
2022-10-09T01:42:52.133Z,78.70
2022-10-09T01:45:20.366Z,78.80
2022-10-09T01:47:48.758Z,78.80
2022-10-09T01:50:23.926Z,78.90
2022-10-09T01:52:54.459Z,78.80
2022-10-09T01:55:44.056Z,78.80
2022-10-09T01:58:21.787Z,78.90
2022-10-09T02:00:55.688Z,78.90
2022-10-09T02:03:25.516Z,78.80
2022-10-09T02:05:56.645Z,78.90
2022-10-09T02:08:25.886Z,78.90
2022-10-09T02:10:57.694Z,79.00
2022-10-09T02:13:27.449Z,79.00
2022-10-09T02:16:01.848Z,79.00
2022-10-09T02:18:37.298Z,78.90
2022-10-09T02:21:12.089Z,79.00
2022-10-09T02:23:42.682Z,79.00
2022-10-09T02:26:12.069Z,79.00
2022-10-09T02:28:45.832Z,79.10
2022-10-09T02:31:21.151Z,79.10
2022-10-09T02:33:56.884Z,79.00
2022-10-09T02:36:25.300Z,79.00
2022-10-09T02:38:53.752Z,79.10
2022-10-09T02:41:21.895Z,78.90
2022-10-09T02:43:51.576Z,79.20
2022-10-09T02:46:19.884Z,79.30
2022-10-09T02:48:48.060Z,79.10
2022-10-09T02:51:16.390Z,79.10
2022-10-09T02:53:44.610Z,79.30
2022-10-09T02:56:13.059Z,79.20
2022-10-09T02:58:41.545Z,79.10
2022-10-09T03:01:11.089Z,79.20
2022-10-09T03:03:39.207Z,79.30
2022-10-09T03:06:10.524Z,79.30
2022-10-09T03:08:39.816Z,79.40
2022-10-09T03:11:08.281Z,79.40
2022-10-09T03:13:36.841Z,79.30
2022-10-09T03:16:05.419Z,79.30
2022-10-09T03:18:35.400Z,79.10
2022-10-09T03:21:06.800Z,78.90
2022-10-09T03:23:35.066Z,78.70
2022-10-09T03:26:05.030Z,78.80
2022-10-09T03:28:33.219Z,78.80
2022-10-09T03:31:01.353Z,78.80
2022-10-09T03:33:29.489Z,78.80
2022-10-09T03:35:59.058Z,79.00
2022-10-09T03:38:27.366Z,78.90
2022-10-09T03:40:55.715Z,78.90
2022-10-09T03:43:23.849Z,78.90
2022-10-09T03:45:52.181Z,79.30
2022-10-09T03:48:20.351Z,78.90
2022-10-09T03:50:48.693Z,78.80
2022-10-09T03:53:18.378Z,79.10
2022-10-09T03:55:46.457Z,79.00
2022-10-09T03:58:14.620Z,79.10
2022-10-09T04:00:45.428Z,78.50
2022-10-09T04:03:13.773Z,78.50
2022-10-09T04:05:41.882Z,78.10
2022-10-09T04:08:10.434Z,77.70
2022-10-09T04:10:40.051Z,77.50
2022-10-09T04:13:08.553Z,77.20
2022-10-09T04:15:36.828Z,77.70
2022-10-09T04:18:05.894Z,77.40
2022-10-09T04:20:34.151Z,77.60
2022-10-09T04:23:02.808Z,77.40
2022-10-09T04:25:31.883Z,77.20
2022-10-09T04:28:01.319Z,77.00
2022-10-09T04:30:29.498Z,76.80
2022-10-09T04:32:57.590Z,76.60
2022-10-09T04:35:25.764Z,76.40
2022-10-09T04:37:53.875Z,76.40
2022-10-09T04:40:22.049Z,76.30
2022-10-09T04:42:50.498Z,76.10
2022-10-09T04:45:20.349Z,76.20
2022-10-09T04:47:48.417Z,76.10
2022-10-09T04:50:16.710Z,76.00
2022-10-09T04:52:44.766Z,75.90
2022-10-09T04:55:12.953Z,75.80
2022-10-09T04:57:41.121Z,75.70
2022-10-09T05:00:10.445Z,75.60
2022-10-09T05:02:39.945Z,75.50
2022-10-09T05:05:08.778Z,75.50
2022-10-09T05:07:36.865Z,75.50
2022-10-09T05:10:05.712Z,75.50
2022-10-09T05:12:33.798Z,75.40
2022-10-09T05:15:02.127Z,75.00
2022-10-09T05:17:30.250Z,75.10
2022-10-09T05:19:59.785Z,75.20
2022-10-09T05:22:27.876Z,75.30
2022-10-09T05:24:55.991Z,75.40
2022-10-09T05:27:24.193Z,75.60
2022-10-09T05:29:52.302Z,75.60
2022-10-09T05:32:20.424Z,75.80
2022-10-09T05:34:48.542Z,76.00
2022-10-09T05:37:18.025Z,76.10
2022-10-09T05:39:46.299Z,76.20
2022-10-09T05:42:14.417Z,76.20
2022-10-09T05:44:42.561Z,76.40
2022-10-09T05:47:10.628Z,76.40
2022-10-09T05:49:38.771Z,76.50
2022-10-09T05:52:06.869Z,76.50
2022-10-09T05:54:36.399Z,76.60
2022-10-09T05:57:05.011Z,76.80
2022-10-09T05:59:33.109Z,76.80
2022-10-09T06:02:01.274Z,77.00
2022-10-09T06:04:29.553Z,77.00
2022-10-09T06:06:57.736Z,77.00
2022-10-09T06:09:26.544Z,77.20
2022-10-09T06:11:56.735Z,77.30
2022-10-09T06:14:25.184Z,77.30
2022-10-09T06:16:53.384Z,77.30
2022-10-09T06:19:22.952Z,77.60
2022-10-09T06:21:51.926Z,77.50
2022-10-09T06:24:27.824Z,77.50
2022-10-09T06:26:58.506Z,77.50
2022-10-09T06:29:26.734Z,77.70
2022-10-09T06:31:54.961Z,77.70
2022-10-09T06:34:23.461Z,77.60
2022-10-09T06:36:51.479Z,77.60
2022-10-09T06:39:19.805Z,77.70
2022-10-09T06:41:47.968Z,77.80
2022-10-09T06:44:17.708Z,77.60
2022-10-09T06:46:47.219Z,77.50
2022-10-09T06:49:15.327Z,77.50
2022-10-09T06:51:43.498Z,77.50
2022-10-09T06:54:13.689Z,77.60
2022-10-09T06:56:42.325Z,77.50
2022-10-09T06:59:11.599Z,77.50
2022-10-09T07:01:41.205Z,77.40
2022-10-09T07:04:12.217Z,77.40
2022-10-09T07:06:42.705Z,77.30
2022-10-09T07:09:13.082Z,77.40
2022-10-09T07:11:43.266Z,77.30
2022-10-09T07:14:13.214Z,76.90
2022-10-09T07:16:44.277Z,76.30
2022-10-09T07:19:13.911Z,75.70
2022-10-09T07:21:43.604Z,75.10
2022-10-09T07:24:12.650Z,74.70
2022-10-09T07:26:43.055Z,74.20
2022-10-09T07:29:12.993Z,73.80
2022-10-09T07:31:42.624Z,73.20
2022-10-09T07:34:10.841Z,73.00
2022-10-09T07:36:38.968Z,72.80
2022-10-09T07:39:10.078Z,72.50
2022-10-09T07:41:38.180Z,72.20
2022-10-09T07:44:06.286Z,72.20
2022-10-09T07:46:34.509Z,71.80
2022-10-09T07:49:04.881Z,71.70
2022-10-09T07:51:33.788Z,70.80
2022-10-09T07:54:02.433Z,71.30
2022-10-09T07:56:32.719Z,71.30
2022-10-09T07:59:05.676Z,70.90
2022-10-09T08:01:38.221Z,70.80
2022-10-09T08:04:14.095Z,70.50
2022-10-09T08:06:44.225Z,69.80
2022-10-09T08:09:12.414Z,69.90
2022-10-09T08:11:42.688Z,69.30
2022-10-09T08:14:18.217Z,69.40
2022-10-09T08:16:47.314Z,69.20
2022-10-09T08:19:16.935Z,68.60
2022-10-09T08:21:45.069Z,68.70
2022-10-09T08:24:13.520Z,68.50
2022-10-09T08:26:42.883Z,68.30
2022-10-09T08:29:13.922Z,68.10
2022-10-09T08:31:42.498Z,67.70
2022-10-09T08:34:11.764Z,67.30
2022-10-09T08:36:41.439Z,67.20
2022-10-09T08:39:09.588Z,67.20
2022-10-09T08:41:44.995Z,66.50
2022-10-09T08:44:17.986Z,66.70
2022-10-09T08:47:06.837Z,66.10
2022-10-09T08:49:42.276Z,66.10
2022-10-09T08:52:29.469Z,65.70
2022-10-09T08:55:02.478Z,65.60
2022-10-09T08:57:33.258Z,65.30
2022-10-09T09:00:01.489Z,64.90
2022-10-09T09:02:44.753Z,66.10
2022-10-09T09:05:29.021Z,67.10
2022-10-09T09:08:06.647Z,67.50
2022-10-09T09:10:41.848Z,68.10
2022-10-09T09:13:24.273Z,68.50
2022-10-09T09:15:58.732Z,68.50
2022-10-09T09:18:43.002Z,68.90
2022-10-09T09:21:19.565Z,69.30
2022-10-09T09:23:49.783Z,69.80
2022-10-09T09:26:19.915Z,69.90
2022-10-09T09:28:51.476Z,69.80
2022-10-09T09:31:24.885Z,70.40
2022-10-09T09:33:59.627Z,70.90
2022-10-09T09:36:33.044Z,70.80
2022-10-09T09:41:50.689Z,72.00
2022-10-09T09:44:19.966Z,71.80
2022-10-09T09:46:50.530Z,71.80
2022-10-09T09:49:21.149Z,72.10
2022-10-09T09:51:50.961Z,72.50
2022-10-09T09:54:23.995Z,72.50
2022-10-09T09:57:12.055Z,73.00
2022-10-09T09:59:44.259Z,72.80
2022-10-09T10:02:15.671Z,73.00
2022-10-09T10:04:52.069Z,72.80
2022-10-09T10:07:33.543Z,72.30
2022-10-09T10:10:15.599Z,73.10
2022-10-09T10:12:44.873Z,73.00
2022-10-09T10:15:24.455Z,72.80
2022-10-09T10:17:59.811Z,72.80
2022-10-09T10:20:29.344Z,72.80
2022-10-09T10:23:00.527Z,72.70
2022-10-09T10:25:34.570Z,72.90
2022-10-09T10:28:08.432Z,73.00
2022-10-09T10:30:38.842Z,73.10
2022-10-09T10:33:15.951Z,73.00
2022-10-09T10:35:45.308Z,73.00
2022-10-09T10:38:19.143Z,72.70
2022-10-09T10:40:53.842Z,72.60
2022-10-09T10:43:32.216Z,73.40
2022-10-09T10:46:07.091Z,73.40
2022-10-09T10:48:40.364Z,73.40
2022-10-09T10:51:24.967Z,73.80
2022-10-09T10:54:05.675Z,74.00
2022-10-09T10:56:41.004Z,73.50
2022-10-09T10:59:34.762Z,74.10
2022-10-09T11:02:39.441Z,74.00
2022-10-09T11:05:22.865Z,73.60
2022-10-09T11:08:01.330Z,73.80
2022-10-09T11:10:37.621Z,73.50
2022-10-09T11:13:15.218Z,73.30
2022-10-09T11:15:56.277Z,73.30
2022-10-09T11:18:35.503Z,73.10
2022-10-09T11:21:24.451Z,73.10
2022-10-09T11:24:16.453Z,72.80
2022-10-09T11:26:50.266Z,72.90
2022-10-09T11:29:24.804Z,72.60
2022-10-09T11:31:56.728Z,72.30
2022-10-09T11:34:30.573Z,72.40
2022-10-09T11:37:01.631Z,72.30
2022-10-09T11:39:32.083Z,71.80
2022-10-09T11:42:01.198Z,71.80
2022-10-09T11:44:45.359Z,71.50
2022-10-09T11:47:20.531Z,71.20
2022-10-09T11:50:03.681Z,70.60
2022-10-09T11:52:40.789Z,70.10
2022-10-09T11:55:17.627Z,69.60
2022-10-09T11:57:46.641Z,69.40
2022-10-09T12:00:17.425Z,68.90
2022-10-09T12:02:45.752Z,69.10
2022-10-09T12:05:19.705Z,69.10
2022-10-09T12:07:48.058Z,68.50
2022-10-09T12:10:27.395Z,67.80
2022-10-09T12:13:01.961Z,68.00
2022-10-09T12:15:40.963Z,67.30
2022-10-09T12:18:24.552Z,67.10
2022-10-09T12:20:55.621Z,66.60
2022-10-09T12:23:28.058Z,67.10
2022-10-09T12:25:57.873Z,66.20
2022-10-09T12:28:30.570Z,66.40
2022-10-09T12:31:02.316Z,66.10
2022-10-09T12:33:36.071Z,65.30
2022-10-09T12:36:11.370Z,65.40
2022-10-09T12:38:39.585Z,65.50
2022-10-09T12:41:20.090Z,65.20
2022-10-09T12:43:49.633Z,64.60
2022-10-09T12:46:30.446Z,64.40
2022-10-09T12:48:59.519Z,64.00
2022-10-09T12:51:30.756Z,63.60
2022-10-09T12:53:58.925Z,63.50
2022-10-09T12:56:30.902Z,63.30
2022-10-09T12:58:59.805Z,63.00
2022-10-09T13:01:30.008Z,63.10
2022-10-09T13:03:59.681Z,63.20
2022-10-09T13:06:29.519Z,62.60
2022-10-09T13:09:00.831Z,62.20
2022-10-09T13:11:34.016Z,61.90
2022-10-09T13:14:02.751Z,61.50
2022-10-09T13:16:44.823Z,61.70
2022-10-09T13:19:23.855Z,60.90
2022-10-09T13:22:19.914Z,60.80
2022-10-09T13:24:50.930Z,60.50
2022-10-09T13:27:20.110Z,59.90
2022-10-09T13:29:49.001Z,60.00
2022-10-09T13:32:19.216Z,60.30
2022-10-09T13:34:47.850Z,60.00
2022-10-09T13:37:20.205Z,59.70
2022-10-09T13:39:48.480Z,59.30
2022-10-09T13:42:17.765Z,58.40
2022-10-09T13:44:46.148Z,58.80
2022-10-09T13:47:14.385Z,58.00
2022-10-09T13:49:43.881Z,57.90
2022-10-09T13:52:12.183Z,57.40
2022-10-09T13:54:40.376Z,57.50
2022-10-09T13:57:08.631Z,58.10
2022-10-09T13:59:37.955Z,57.50
2022-10-09T14:02:06.439Z,57.30
2022-10-09T14:04:34.532Z,56.40
2022-10-09T14:07:04.051Z,56.60
2022-10-09T14:09:32.355Z,56.70
2022-10-09T14:12:00.468Z,55.40
2022-10-09T14:14:28.663Z,55.40
2022-10-09T14:16:56.728Z,55.70
2022-10-09T14:19:27.638Z,55.20
2022-10-09T14:21:56.166Z,55.40
2022-10-09T14:24:26.234Z,55.50
2022-10-09T14:26:54.376Z,56.10
2022-10-09T14:29:22.541Z,55.40
2022-10-09T14:31:51.852Z,55.30
2022-10-09T14:34:19.963Z,55.30
2022-10-09T14:36:49.429Z,54.30
2022-10-09T14:39:17.886Z,54.20
2022-10-09T14:41:47.429Z,53.80
2022-10-09T14:44:15.861Z,53.90
2022-10-09T14:46:43.975Z,53.90
2022-10-09T14:49:12.320Z,54.20
2022-10-09T14:51:42.270Z,54.00
2022-10-09T14:54:12.706Z,53.90
2022-10-09T14:56:40.858Z,53.80
2022-10-09T14:59:10.514Z,54.30
2022-10-09T15:01:38.764Z,54.40
2022-10-09T15:04:07.611Z,54.30
2022-10-09T15:06:36.746Z,54.10
2022-10-09T15:09:06.331Z,54.20
2022-10-09T15:11:36.002Z,54.40
2022-10-09T15:14:06.267Z,54.50
2022-10-09T15:16:38.274Z,54.70
2022-10-09T15:19:09.420Z,55.00
2022-10-09T15:21:38.837Z,55.40
2022-10-09T15:24:07.665Z,55.60
2022-10-09T15:26:37.495Z,56.00
2022-10-09T15:29:08.069Z,56.50
2022-10-09T15:31:39.541Z,57.10
2022-10-09T15:34:09.574Z,57.40
2022-10-09T15:36:39.960Z,57.80
2022-10-09T15:39:11.403Z,58.20
2022-10-09T15:41:41.926Z,58.60
2022-10-09T15:44:15.881Z,58.90
2022-10-09T15:46:46.358Z,59.20
2022-10-09T15:49:14.565Z,59.50
2022-10-09T15:51:43.769Z,59.90
2022-10-09T15:54:12.946Z,60.00
2022-10-09T15:56:42.325Z,60.20
2022-10-09T15:59:12.988Z,60.40
2022-10-09T16:01:41.834Z,60.60
2022-10-09T16:04:12.284Z,60.70
2022-10-09T16:06:43.206Z,60.90
2022-10-09T16:09:17.321Z,61.10
2022-10-09T16:11:45.456Z,61.30
2022-10-09T16:14:17.988Z,61.60
2022-10-09T16:16:48.649Z,61.90
2022-10-09T16:19:20.185Z,62.10
2022-10-09T16:21:49.456Z,62.50
2022-10-09T16:24:20.587Z,62.70
2022-10-09T16:26:50.944Z,63.00
2022-10-09T16:29:19.264Z,63.10
2022-10-09T16:31:47.430Z,63.70
2022-10-09T16:34:17.064Z,64.10
2022-10-09T16:36:47.932Z,64.60
2022-10-09T16:39:16.062Z,64.90
2022-10-09T16:41:44.255Z,65.00
2022-10-09T16:44:17.101Z,65.50
2022-10-09T16:46:55.371Z,66.00
2022-10-09T16:49:27.107Z,66.40
2022-10-09T16:51:55.323Z,66.60
2022-10-09T16:54:23.451Z,67.00
2022-10-09T16:56:51.550Z,67.50
2022-10-09T16:59:19.739Z,67.80
2022-10-09T17:01:52.169Z,68.20
2022-10-09T17:04:20.445Z,68.30
2022-10-09T17:06:53.365Z,68.80
2022-10-09T17:09:21.694Z,69.00
2022-10-09T17:11:50.163Z,69.20
2022-10-09T17:14:18.445Z,69.40
2022-10-09T17:16:46.579Z,69.60
2022-10-09T17:19:15.848Z,69.70
2022-10-09T17:21:44.478Z,70.10
2022-10-09T17:24:15.589Z,70.50
2022-10-09T17:26:43.783Z,70.50
2022-10-09T17:29:13.197Z,70.60
2022-10-09T17:31:42.117Z,70.80
2022-10-09T17:34:11.764Z,71.00
2022-10-09T17:36:41.559Z,71.20
2022-10-09T17:39:19.001Z,71.40
2022-10-09T17:41:48.703Z,71.70
2022-10-09T17:44:16.873Z,71.90
2022-10-09T17:46:45.695Z,72.20
2022-10-09T17:49:17.388Z,72.20
2022-10-09T17:51:45.784Z,72.30
2022-10-09T17:54:16.753Z,72.40
2022-10-09T17:56:46.451Z,72.60
2022-10-09T17:59:15.641Z,72.80
2022-10-09T18:01:43.939Z,72.90
2022-10-09T18:04:16.308Z,72.90
2022-10-09T18:06:44.645Z,73.10
2022-10-09T18:09:12.830Z,73.30
2022-10-09T18:11:41.036Z,73.40
2022-10-09T18:14:12.244Z,73.50
2022-10-09T18:16:41.186Z,73.60
2022-10-09T18:19:12.542Z,73.80
2022-10-09T18:21:42.770Z,74.00
2022-10-09T18:24:11.756Z,74.10
2022-10-09T18:26:40.115Z,74.20
2022-10-09T18:29:08.323Z,74.20
2022-10-09T18:31:38.653Z,74.40
2022-10-09T18:34:06.944Z,74.50
2022-10-09T18:36:36.200Z,74.50
2022-10-09T18:39:07.387Z,74.50
2022-10-09T18:41:36.622Z,74.60
2022-10-09T18:44:05.902Z,74.70
2022-10-09T18:46:39.029Z,74.90
2022-10-09T18:49:09.680Z,74.80
2022-10-09T18:51:39.024Z,75.00
2022-10-09T18:54:08.797Z,75.10
2022-10-09T18:56:38.134Z,75.20
2022-10-09T18:59:10.019Z,75.20
2022-10-09T19:01:39.669Z,75.30
2022-10-09T19:04:07.902Z,75.50
2022-10-09T19:06:36.389Z,75.50
2022-10-09T19:09:05.264Z,75.60
2022-10-09T19:11:35.150Z,75.70
2022-10-09T19:14:03.634Z,75.70
2022-10-09T19:16:34.343Z,75.90
2022-10-09T19:19:04.622Z,76.00
2022-10-09T19:21:32.789Z,76.10
2022-10-09T19:24:03.782Z,76.10
2022-10-09T19:26:33.054Z,76.10
2022-10-09T19:29:01.457Z,76.20
2022-10-09T19:31:29.655Z,76.20
2022-10-09T19:34:00.335Z,76.30
2022-10-09T19:36:33.229Z,76.40
2022-10-09T19:39:01.876Z,76.40
2022-10-09T19:41:30.023Z,76.50
2022-10-09T19:43:58.405Z,76.70
2022-10-09T19:46:26.766Z,76.70
2022-10-09T19:48:55.079Z,76.70
2022-10-09T19:51:25.973Z,76.80
2022-10-09T19:53:55.564Z,76.80
2022-10-09T19:56:26.158Z,76.90
2022-10-09T19:58:55.437Z,77.00
2022-10-09T20:01:26.524Z,77.00
2022-10-09T20:03:58.939Z,77.10
2022-10-09T20:06:28.026Z,77.20
2022-10-09T20:08:58.120Z,77.10
2022-10-09T20:11:27.424Z,77.20
2022-10-09T20:13:56.635Z,77.30
2022-10-09T20:16:35.536Z,77.30
2022-10-09T20:19:04.916Z,77.40
2022-10-09T20:21:34.354Z,77.40
2022-10-09T20:24:03.988Z,77.60
2022-10-09T20:26:33.237Z,77.70
2022-10-09T20:29:01.494Z,77.70
2022-10-09T20:31:30.331Z,77.80
2022-10-09T20:33:59.822Z,77.80
2022-10-09T20:36:30.090Z,77.90
2022-10-09T20:38:59.132Z,77.90
2022-10-09T20:41:30.597Z,77.80
2022-10-09T20:44:00.408Z,77.80
2022-10-09T20:46:30.647Z,77.70
2022-10-09T20:48:59.106Z,77.90
2022-10-09T20:51:27.446Z,77.90
2022-10-09T20:53:57.502Z,77.90
2022-10-09T20:56:29.461Z,77.90
2022-10-09T20:58:58.940Z,77.90
2022-10-09T21:01:28.407Z,78.10
2022-10-09T21:03:57.512Z,78.10
2022-10-09T21:06:26.145Z,78.10
2022-10-09T21:08:54.351Z,78.20
2022-10-09T21:11:22.873Z,78.30
2022-10-09T21:13:52.814Z,78.40
2022-10-09T21:16:24.089Z,78.40
2022-10-09T21:18:55.318Z,78.30
2022-10-09T21:21:23.820Z,78.40
2022-10-09T21:23:53.814Z,78.40
2022-10-09T21:26:23.935Z,78.50
2022-10-09T21:28:58.433Z,78.70
2022-10-09T21:31:29.789Z,78.70
2022-10-09T21:33:59.072Z,78.70
2022-10-09T21:36:33.759Z,78.80
2022-10-09T21:39:02.208Z,78.80
2022-10-09T21:41:30.338Z,78.90
2022-10-09T21:44:00.203Z,78.90
2022-10-09T21:46:28.574Z,78.90
2022-10-09T21:48:56.725Z,78.90
2022-10-09T21:51:25.446Z,78.90
2022-10-09T21:53:55.138Z,78.80
2022-10-09T21:56:24.054Z,78.80
2022-10-09T21:58:52.741Z,78.80
2022-10-09T22:01:22.575Z,78.80
2022-10-09T22:03:50.757Z,78.70
2022-10-09T22:06:19.656Z,78.70
2022-10-09T22:08:48.832Z,78.70
2022-10-09T22:11:17.584Z,78.80
2022-10-09T22:13:46.091Z,78.70
2022-10-09T22:16:16.227Z,78.70
2022-10-09T22:18:46.596Z,78.80
2022-10-09T22:21:16.761Z,78.70
2022-10-09T22:23:45.069Z,78.80
2022-10-09T22:26:16.744Z,78.80
2022-10-09T22:28:45.166Z,78.80
2022-10-09T22:31:14.979Z,78.80
2022-10-09T22:33:43.514Z,78.90
2022-10-09T22:36:15.961Z,78.90
2022-10-09T22:38:45.500Z,79.00
2022-10-09T22:41:15.585Z,79.00
2022-10-09T22:43:46.067Z,79.10
2022-10-09T22:46:17.495Z,79.10
2022-10-09T22:48:45.976Z,79.20
2022-10-09T22:51:17.337Z,79.20
2022-10-09T22:53:46.509Z,79.20
2022-10-09T22:56:16.189Z,79.20
2022-10-09T22:58:44.444Z,79.20
2022-10-09T23:01:15.240Z,79.20
2022-10-09T23:03:43.453Z,79.20
2022-10-09T23:06:14.012Z,79.20
2022-10-09T23:08:45.408Z,79.30
2022-10-09T23:11:14.253Z,79.40
2022-10-09T23:13:42.690Z,79.50
2022-10-09T23:16:12.983Z,79.50
2022-10-09T23:18:42.193Z,79.60
2022-10-09T23:21:13.458Z,79.60
2022-10-09T23:23:43.120Z,79.60
2022-10-09T23:26:13.361Z,79.60
2022-10-09T23:28:41.958Z,79.60
2022-10-09T23:31:12.797Z,79.60
2022-10-09T23:33:42.152Z,79.50
2022-10-09T23:36:12.560Z,79.50
2022-10-09T23:38:40.801Z,79.50
2022-10-09T23:41:13.190Z,79.40
2022-10-09T23:43:42.319Z,79.50
2022-10-09T23:46:13.821Z,79.50
2022-10-09T23:48:42.542Z,79.50
2022-10-09T23:51:10.986Z,79.60
2022-10-09T23:53:39.126Z,79.60
2022-10-09T23:56:13.660Z,79.60
2022-10-09T23:58:41.749Z,79.70
